createdAt,value
2018-08-17T00:02:19.406Z,52.60
2018-08-17T00:04:48.109Z,51.90
2018-08-17T00:07:16.996Z,51.90
2018-08-17T00:09:45.707Z,51.60
2018-08-17T00:12:14.497Z,51.70
2018-08-17T00:14:43.128Z,51.70
2018-08-17T00:17:11.870Z,51.80
2018-08-17T00:19:40.693Z,51.90
2018-08-17T00:22:09.550Z,52.00
2018-08-17T00:24:38.158Z,51.90
2018-08-17T00:27:06.887Z,52.30
2018-08-17T00:29:35.568Z,52.90
2018-08-17T00:32:04.582Z,53.00
2018-08-17T00:34:33.168Z,53.10
2018-08-17T00:37:01.771Z,53.30
2018-08-17T00:39:30.594Z,53.40
2018-08-17T00:41:59.250Z,54.00
2018-08-17T00:44:29.277Z,54.20
2018-08-17T00:46:57.983Z,54.30
2018-08-17T00:49:26.968Z,54.40
2018-08-17T00:51:56.310Z,54.40
2018-08-17T00:54:24.932Z,54.70
2018-08-17T00:56:53.543Z,55.00
2018-08-17T00:59:23.346Z,54.40
2018-08-17T01:01:52.121Z,53.50
2018-08-17T01:04:21.300Z,53.20
2018-08-17T01:06:49.993Z,53.00
2018-08-17T01:09:18.822Z,53.20
2018-08-17T01:11:47.416Z,53.30
2018-08-17T01:14:16.868Z,53.40
2018-08-17T01:16:45.873Z,53.40
2018-08-17T01:19:15.504Z,53.20
2018-08-17T01:21:44.619Z,52.80
2018-08-17T01:24:13.176Z,52.80
2018-08-17T01:26:42.289Z,53.70
2018-08-17T01:29:10.964Z,54.50
2018-08-17T01:31:39.546Z,53.80
2018-08-17T01:34:08.326Z,53.60
2018-08-17T01:36:37.263Z,53.60
2018-08-17T01:39:08.255Z,54.00
2018-08-17T01:41:36.991Z,54.00
2018-08-17T01:44:06.342Z,53.80
2018-08-17T01:46:35.202Z,53.60
2018-08-17T01:49:03.844Z,53.60
2018-08-17T01:51:33.089Z,53.90
2018-08-17T01:54:01.809Z,53.60
2018-08-17T01:56:30.834Z,53.70
2018-08-17T01:58:59.592Z,53.70
2018-08-17T02:01:28.448Z,53.80
2018-08-17T02:03:57.735Z,53.70
2018-08-17T02:06:26.643Z,53.40
2018-08-17T02:08:55.467Z,53.10
2018-08-17T02:11:25.391Z,53.40
2018-08-17T02:13:54.479Z,53.40
2018-08-17T02:16:23.265Z,53.30
2018-08-17T02:18:52.362Z,53.60
2018-08-17T02:21:21.379Z,53.70
2018-08-17T02:23:50.143Z,54.50
2018-08-17T02:26:19.350Z,54.70
2018-08-17T02:28:48.364Z,55.10
2018-08-17T02:31:17.103Z,55.40
2018-08-17T02:33:45.832Z,55.30
2018-08-17T02:36:14.886Z,55.30
2018-08-17T02:38:43.663Z,55.50
2018-08-17T02:41:12.469Z,55.60
2018-08-17T02:43:41.052Z,55.80
2018-08-17T02:46:10.004Z,56.00
2018-08-17T02:48:38.666Z,55.90
2018-08-17T02:51:07.400Z,56.20
2018-08-17T02:53:36.309Z,56.40
2018-08-17T02:56:04.908Z,56.50
2018-08-17T02:58:33.828Z,56.50
2018-08-17T03:01:02.794Z,56.50
2018-08-17T03:03:32.634Z,56.50
2018-08-17T03:06:01.702Z,56.70
2018-08-17T03:08:30.269Z,56.50
2018-08-17T03:10:58.863Z,56.50
2018-08-17T03:13:27.872Z,56.30
2018-08-17T03:15:56.461Z,56.30
2018-08-17T03:18:25.797Z,56.20
2018-08-17T03:20:54.512Z,56.30
2018-08-17T03:23:23.195Z,56.60
2018-08-17T03:25:51.912Z,56.90
2018-08-17T03:28:21.618Z,56.90
2018-08-17T03:30:51.043Z,57.00
2018-08-17T03:33:19.672Z,57.10
2018-08-17T03:35:48.207Z,57.00
2018-08-17T03:38:16.931Z,57.00
2018-08-17T03:40:45.624Z,57.00
2018-08-17T03:43:14.263Z,57.10
2018-08-17T03:45:42.833Z,57.00
2018-08-17T03:48:12.029Z,57.00
2018-08-17T03:50:41.456Z,56.80
2018-08-17T03:53:10.124Z,56.90
2018-08-17T03:55:39.315Z,57.00
2018-08-17T03:58:08.540Z,57.10
2018-08-17T04:00:37.305Z,57.00
2018-08-17T04:03:07.303Z,57.20
2018-08-17T04:05:36.614Z,57.30
2018-08-17T04:08:05.599Z,57.40
2018-08-17T04:10:35.226Z,57.40
2018-08-17T04:13:03.824Z,57.10
2018-08-17T04:15:32.576Z,57.10
2018-08-17T04:18:01.777Z,57.20
2018-08-17T04:20:30.589Z,57.30
2018-08-17T04:22:59.144Z,57.50
2018-08-17T04:25:28.269Z,57.60
2018-08-17T04:27:56.966Z,57.60
2018-08-17T04:30:25.764Z,57.60
2018-08-17T04:32:54.638Z,57.50
2018-08-17T04:35:23.266Z,57.50
2018-08-17T04:37:51.945Z,57.60
2018-08-17T04:40:20.845Z,57.30
2018-08-17T04:42:50.260Z,57.30
2018-08-17T04:45:18.902Z,57.40
2018-08-17T04:47:47.487Z,57.70
2018-08-17T04:50:16.069Z,57.60
2018-08-17T04:52:44.690Z,57.50
2018-08-17T04:55:13.439Z,57.20
2018-08-17T04:57:42.064Z,57.20
2018-08-17T05:00:11.329Z,56.90
2018-08-17T05:02:40.085Z,56.90
2018-08-17T05:05:09.328Z,57.00
2018-08-17T05:07:38.552Z,57.00
2018-08-17T05:10:08.608Z,56.90
2018-08-17T05:12:37.612Z,56.90
2018-08-17T05:15:06.772Z,57.00
2018-08-17T05:17:35.523Z,57.10
2018-08-17T05:20:04.635Z,57.50
2018-08-17T05:22:33.260Z,57.70
2018-08-17T05:25:01.859Z,57.60
2018-08-17T05:27:30.560Z,57.70
2018-08-17T05:29:59.758Z,57.60
2018-08-17T05:32:28.755Z,57.70
2018-08-17T05:34:57.347Z,57.50
2018-08-17T05:37:26.570Z,57.70
2018-08-17T05:39:55.608Z,57.70
2018-08-17T05:42:24.394Z,57.70
2018-08-17T05:44:52.968Z,57.50
2018-08-17T05:47:21.703Z,57.50
2018-08-17T05:49:50.470Z,57.40
2018-08-17T05:52:19.428Z,57.40
2018-08-17T05:54:48.351Z,57.20
2018-08-17T05:57:17.008Z,57.10
2018-08-17T05:59:45.695Z,57.10
2018-08-17T06:02:14.521Z,56.90
2018-08-17T06:04:43.143Z,56.70
2018-08-17T06:07:12.026Z,56.40
2018-08-17T06:09:41.482Z,56.30
2018-08-17T06:12:10.309Z,55.80
2018-08-17T06:14:39.835Z,55.60
2018-08-17T06:17:08.508Z,55.80
2018-08-17T06:19:38.070Z,55.00
2018-08-17T06:22:07.376Z,54.60
2018-08-17T06:24:36.031Z,54.30
2018-08-17T06:27:05.788Z,54.50
2018-08-17T06:29:34.409Z,54.40
2018-08-17T06:32:04.186Z,54.40
2018-08-17T06:34:33.278Z,54.10
2018-08-17T06:37:02.544Z,54.10
2018-08-17T06:39:31.274Z,53.80
2018-08-17T06:42:00.155Z,53.50
2018-08-17T06:44:30.397Z,53.40
2018-08-17T06:46:58.939Z,53.20
2018-08-17T06:49:27.939Z,53.00
2018-08-17T06:51:57.317Z,53.10
2018-08-17T06:54:26.049Z,53.00
2018-08-17T06:56:55.239Z,52.60
2018-08-17T06:59:24.242Z,52.80
2018-08-17T07:01:53.042Z,52.70
2018-08-17T07:04:22.074Z,52.50
2018-08-17T07:06:51.003Z,52.40
2018-08-17T07:09:20.060Z,52.10
2018-08-17T07:11:50.036Z,51.90
2018-08-17T07:14:18.989Z,51.70
2018-08-17T07:16:47.967Z,51.40
2018-08-17T07:19:16.550Z,51.40
2018-08-17T07:21:45.796Z,50.50
2018-08-17T07:24:14.511Z,50.30
2018-08-17T07:26:43.525Z,50.00
2018-08-17T07:29:12.499Z,49.80
2018-08-17T07:31:41.661Z,49.30
2018-08-17T07:34:10.593Z,49.00
2018-08-17T07:36:40.019Z,48.70
2018-08-17T07:39:08.947Z,48.30
2018-08-17T07:41:38.245Z,48.00
2018-08-17T07:44:06.809Z,47.60
2018-08-17T07:46:35.809Z,47.40
2018-08-17T07:49:04.692Z,47.20
2018-08-17T07:51:33.858Z,47.00
2018-08-17T07:54:03.140Z,46.80
2018-08-17T07:56:32.741Z,46.60
2018-08-17T07:59:02.545Z,46.60
2018-08-17T08:01:31.503Z,46.50
2018-08-17T08:04:00.195Z,46.50
2018-08-17T08:06:30.837Z,46.20
2018-08-17T08:09:00.185Z,46.20
2018-08-17T08:11:29.071Z,46.30
2018-08-17T08:13:58.027Z,46.60
2018-08-17T08:16:26.636Z,46.60
2018-08-17T08:18:55.503Z,46.60
2018-08-17T08:21:25.657Z,46.80
2018-08-17T08:23:57.228Z,47.00
2018-08-17T08:26:26.475Z,47.20
2018-08-17T08:28:56.622Z,46.90
2018-08-17T08:31:25.591Z,47.20
2018-08-17T08:33:54.603Z,46.10
2018-08-17T08:36:23.642Z,47.20
2018-08-17T08:38:52.647Z,47.20
2018-08-17T08:41:21.513Z,46.90
2018-08-17T08:43:50.259Z,47.30
2018-08-17T08:46:18.931Z,46.70
2018-08-17T08:48:47.632Z,46.60
2018-08-17T08:51:16.442Z,46.60
2018-08-17T08:53:44.992Z,46.30
2018-08-17T08:56:13.767Z,46.60
2018-08-17T08:58:42.429Z,46.70
2018-08-17T09:01:11.265Z,46.80
2018-08-17T09:03:40.189Z,46.70
2018-08-17T09:06:09.025Z,46.90
2018-08-17T09:08:37.761Z,47.00
2018-08-17T09:11:06.719Z,46.80
2018-08-17T09:13:35.644Z,46.80
2018-08-17T09:16:04.423Z,46.40
2018-08-17T09:18:33.054Z,46.40
2018-08-17T09:21:01.912Z,46.00
2018-08-17T09:23:30.863Z,44.80
2018-08-17T09:26:00.685Z,44.50
2018-08-17T09:28:29.362Z,44.80
2018-08-17T09:30:58.260Z,43.90
2018-08-17T09:33:27.035Z,44.20
2018-08-17T09:35:55.721Z,43.80
2018-08-17T09:38:24.324Z,44.00
2018-08-17T09:40:52.954Z,42.90
2018-08-17T09:43:22.765Z,43.20
2018-08-17T09:45:51.548Z,42.90
2018-08-17T09:48:20.191Z,42.50
2018-08-17T09:50:48.935Z,42.80
2018-08-17T09:53:17.968Z,43.20
2018-08-17T09:55:47.899Z,43.40
2018-08-17T09:58:17.333Z,43.40
2018-08-17T10:00:52.723Z,43.20
2018-08-17T10:03:27.957Z,42.60
2018-08-17T10:06:01.998Z,43.70
2018-08-17T10:08:37.527Z,42.50
2018-08-17T10:11:06.844Z,42.30
2018-08-17T10:13:35.457Z,43.20
2018-08-17T10:16:04.577Z,42.90
2018-08-17T10:18:41.214Z,43.10
2018-08-17T10:21:10.188Z,43.50
2018-08-17T10:23:38.724Z,43.30
2018-08-17T10:26:07.560Z,43.80
2018-08-17T10:28:36.459Z,43.90
2018-08-17T10:31:05.962Z,43.30
2018-08-17T10:33:40.321Z,43.30
2018-08-17T10:36:09.052Z,43.40
2018-08-17T10:38:37.814Z,44.00
2018-08-17T10:41:06.789Z,43.90
2018-08-17T10:43:35.634Z,43.60
2018-08-17T10:46:07.190Z,44.10
2018-08-17T10:48:36.737Z,44.20
2018-08-17T10:51:06.037Z,44.50
2018-08-17T10:53:42.646Z,43.90
2018-08-17T10:56:11.819Z,43.90
2018-08-17T10:58:40.706Z,44.30
2018-08-17T11:01:10.538Z,44.40
2018-08-17T11:03:39.693Z,44.40
2018-08-17T11:06:09.568Z,44.70
2018-08-17T11:08:39.506Z,44.70
2018-08-17T11:11:08.928Z,44.30
2018-08-17T11:13:37.735Z,44.10
2018-08-17T11:16:07.465Z,44.70
2018-08-17T11:18:36.182Z,44.40
2018-08-17T11:21:04.878Z,44.60
2018-08-17T11:23:33.679Z,44.20
2018-08-17T11:26:02.213Z,44.10
2018-08-17T11:28:32.160Z,43.70
2018-08-17T11:31:00.794Z,43.50
2018-08-17T11:33:30.012Z,43.90
2018-08-17T11:36:02.021Z,44.00
2018-08-17T11:38:30.788Z,44.10
2018-08-17T11:40:59.405Z,44.30
2018-08-17T11:43:28.247Z,42.70
2018-08-17T11:45:56.901Z,43.50
2018-08-17T11:48:30.715Z,42.90
2018-08-17T11:50:59.514Z,43.40
2018-08-17T11:53:28.622Z,42.00
2018-08-17T11:55:57.290Z,42.20
2018-08-17T11:58:25.992Z,41.70
2018-08-17T12:00:54.578Z,41.40
2018-08-17T12:03:23.162Z,41.10
2018-08-17T12:05:51.754Z,40.80
2018-08-17T12:08:21.439Z,40.70
2018-08-17T12:10:55.420Z,41.00
2018-08-17T12:13:24.807Z,40.90
2018-08-17T12:15:56.183Z,41.60
2018-08-17T12:18:25.278Z,41.10
2018-08-17T12:20:54.467Z,41.20
2018-08-17T12:23:23.792Z,41.60
2018-08-17T12:25:56.200Z,42.40
2018-08-17T12:28:25.963Z,42.60
2018-08-17T12:30:54.691Z,42.70
2018-08-17T12:33:23.326Z,42.90
2018-08-17T12:35:52.219Z,42.50
2018-08-17T12:38:20.804Z,42.50
2018-08-17T12:40:50.795Z,41.40
2018-08-17T12:43:24.983Z,40.90
2018-08-17T12:45:53.734Z,41.20
2018-08-17T12:48:22.561Z,40.80
2018-08-17T12:50:51.175Z,41.20
2018-08-17T12:53:19.886Z,41.60
2018-08-17T12:55:48.553Z,41.50
2018-08-17T12:58:17.405Z,40.30
2018-08-17T13:00:46.198Z,40.30
2018-08-17T13:03:14.894Z,40.90
2018-08-17T13:05:43.832Z,41.00
2018-08-17T13:08:12.832Z,40.50
2018-08-17T13:10:41.590Z,40.00
2018-08-17T13:13:11.071Z,40.90
2018-08-17T13:16:14.251Z,40.10
2018-08-17T13:18:43.072Z,38.60
2018-08-17T13:21:11.820Z,39.90
2018-08-17T13:23:40.520Z,40.20
2018-08-17T13:26:09.207Z,40.50
2018-08-17T13:28:37.874Z,41.20
2018-08-17T13:31:06.578Z,40.30
2018-08-17T13:33:35.356Z,39.80
2018-08-17T13:36:04.115Z,40.90
2018-08-17T13:38:32.764Z,41.20
2018-08-17T13:41:01.443Z,41.10
2018-08-17T13:43:30.265Z,41.00
2018-08-17T13:45:58.962Z,41.20
2018-08-17T13:48:27.643Z,41.30
2018-08-17T13:50:56.279Z,41.00
2018-08-17T13:53:25.150Z,41.60
2018-08-17T13:55:53.758Z,41.70
2018-08-17T13:58:23.637Z,41.60
2018-08-17T14:00:52.960Z,41.40
2018-08-17T14:03:21.702Z,41.70
2018-08-17T14:05:50.335Z,41.00
2018-08-17T14:08:18.961Z,41.10
2018-08-17T14:10:48.032Z,41.30
2018-08-17T14:13:16.636Z,41.40
2018-08-17T14:15:45.308Z,41.50
2018-08-17T14:18:13.972Z,41.80
2018-08-17T14:20:42.635Z,42.00
2018-08-17T14:23:11.449Z,41.70
2018-08-17T14:25:40.135Z,42.20
2018-08-17T14:28:08.824Z,39.80
2018-08-17T14:30:37.478Z,39.90
2018-08-17T14:33:06.298Z,39.90
2018-08-17T14:35:35.196Z,38.40
2018-08-17T14:38:03.944Z,38.40
2018-08-17T14:40:32.661Z,38.60
2018-08-17T14:43:01.395Z,39.60
2018-08-17T14:45:30.035Z,40.30
2018-08-17T14:47:58.684Z,38.70
2018-08-17T14:50:27.555Z,39.40
2018-08-17T14:52:56.121Z,38.50
2018-08-17T14:55:24.906Z,39.00
2018-08-17T14:57:54.161Z,37.80
2018-08-17T15:00:22.828Z,38.20
2018-08-17T15:02:51.468Z,38.70
2018-08-17T15:05:20.066Z,37.70
2018-08-17T15:07:48.692Z,37.80
2018-08-17T15:10:17.297Z,36.90
2018-08-17T15:12:45.968Z,37.50
2018-08-17T15:15:14.836Z,38.70
2018-08-17T15:17:43.470Z,38.10
2018-08-17T15:20:13.163Z,37.70
2018-08-17T15:22:42.047Z,37.70
2018-08-17T15:25:10.851Z,38.30
2018-08-17T15:30:22.844Z,38.80
2018-08-17T15:32:51.494Z,39.80
2018-08-17T15:35:20.220Z,39.30
2018-08-17T15:37:48.797Z,38.80
2018-08-17T15:40:17.939Z,39.10
2018-08-17T15:42:46.520Z,39.90
2018-08-17T15:45:21.279Z,39.90
2018-08-17T15:47:49.928Z,39.90
2018-08-17T15:50:20.001Z,40.50
2018-08-17T15:52:48.805Z,40.70
2018-08-17T15:55:18.244Z,40.70
2018-08-17T15:57:47.360Z,40.80
2018-08-17T16:00:19.623Z,40.00
2018-08-17T16:02:48.238Z,41.10
2018-08-17T16:05:16.986Z,40.90
2018-08-17T16:07:45.639Z,41.10
2018-08-17T16:10:15.599Z,41.20
2018-08-17T16:12:45.035Z,41.70
2018-08-17T16:15:13.944Z,41.10
2018-08-17T16:17:42.527Z,41.30
2018-08-17T16:20:12.448Z,41.40
2018-08-17T16:22:41.952Z,41.30
2018-08-17T16:25:11.444Z,41.10
2018-08-17T16:27:41.017Z,41.90
2018-08-17T16:30:13.500Z,42.70
2018-08-17T16:32:42.472Z,43.00
2018-08-17T16:35:12.093Z,43.80
2018-08-17T16:37:47.240Z,43.80
2018-08-17T16:40:16.563Z,44.10
2018-08-17T16:42:46.330Z,44.40
2018-08-17T16:45:15.284Z,44.70
2018-08-17T16:47:44.054Z,45.10
2018-08-17T16:50:12.669Z,45.00
2018-08-17T16:52:41.367Z,44.50
2018-08-17T16:55:09.965Z,44.10
2018-08-17T16:57:39.018Z,43.90
2018-08-17T17:00:09.499Z,44.20
2018-08-17T17:02:38.599Z,44.50
2018-08-17T17:05:08.140Z,44.60
2018-08-17T17:07:36.677Z,45.00
2018-08-17T17:10:07.051Z,45.70
2018-08-17T17:12:36.257Z,45.10
2018-08-17T17:15:25.622Z,45.20
2018-08-17T17:17:59.491Z,45.20
2018-08-17T17:20:33.630Z,45.40
2018-08-17T17:23:02.763Z,45.80
2018-08-17T17:25:31.481Z,45.60
2018-08-17T17:28:00.082Z,45.40
2018-08-17T17:30:36.911Z,45.20
2018-08-17T17:33:05.587Z,45.10
2018-08-17T17:35:34.432Z,45.40
2018-08-17T17:38:03.208Z,45.10
2018-08-17T17:40:32.268Z,45.20
2018-08-17T17:43:01.064Z,45.10
2018-08-17T17:45:30.204Z,45.20
2018-08-17T17:47:59.677Z,45.60
2018-08-17T17:50:28.463Z,45.30
2018-08-17T17:52:57.189Z,46.40
2018-08-17T17:55:30.033Z,46.60
2018-08-17T17:57:58.703Z,46.80
2018-08-17T18:00:27.304Z,46.90
2018-08-17T18:02:55.870Z,46.90
2018-08-17T18:05:24.815Z,47.00
2018-08-17T18:07:53.699Z,47.00
2018-08-17T18:10:22.861Z,47.00
2018-08-17T18:12:53.083Z,47.30
2018-08-17T18:15:21.834Z,47.70
2018-08-17T18:17:51.661Z,47.80
2018-08-17T18:20:21.561Z,48.10
2018-08-17T18:22:51.681Z,48.30
2018-08-17T18:25:20.523Z,48.40
2018-08-17T18:27:49.818Z,48.60
2018-08-17T18:30:19.249Z,48.70
2018-08-17T18:32:48.488Z,48.80
2018-08-17T18:35:17.508Z,48.70
2018-08-17T18:37:46.505Z,48.80
2018-08-17T18:40:15.260Z,49.00
2018-08-17T18:42:43.923Z,49.10
2018-08-17T18:45:13.239Z,49.20
2018-08-17T18:47:42.783Z,49.40
2018-08-17T18:50:11.648Z,50.00
2018-08-17T18:52:40.839Z,49.50
2018-08-17T18:55:09.801Z,49.60
2018-08-17T18:57:38.659Z,49.60
2018-08-17T19:00:09.900Z,49.80
2018-08-17T19:02:38.889Z,50.00
2018-08-17T19:05:08.034Z,50.10
2018-08-17T19:07:37.330Z,50.20
2018-08-17T19:10:06.699Z,50.30
2018-08-17T19:12:35.827Z,50.30
2018-08-17T19:15:08.990Z,50.30
2018-08-17T19:17:38.031Z,50.40
2018-08-17T19:20:08.915Z,50.50
2018-08-17T19:22:40.063Z,50.60
2018-08-17T19:25:10.404Z,50.50
2018-08-17T19:27:39.931Z,50.30
2018-08-17T19:30:25.591Z,50.30
2018-08-17T19:32:58.973Z,50.60
2018-08-17T19:35:28.092Z,50.60
2018-08-17T19:37:56.915Z,50.70
2018-08-17T19:40:26.591Z,50.80
2018-08-17T19:42:55.672Z,51.10
2018-08-17T19:45:29.666Z,51.10
2018-08-17T19:47:58.561Z,51.20
2018-08-17T19:50:27.186Z,51.30
2018-08-17T19:52:56.265Z,51.40
2018-08-17T19:55:24.873Z,51.50
2018-08-17T19:57:53.603Z,51.40
2018-08-17T20:00:22.506Z,51.40
2018-08-17T20:02:51.120Z,51.30
2018-08-17T20:05:19.795Z,51.40
2018-08-17T20:07:48.448Z,51.60
2018-08-17T20:10:16.991Z,51.80
2018-08-17T20:12:45.764Z,51.90
2018-08-17T20:15:14.747Z,52.00
2018-08-17T20:17:50.185Z,51.80
2018-08-17T20:20:19.006Z,51.60
2018-08-17T20:22:47.597Z,51.70
2018-08-17T20:25:17.374Z,51.60
2018-08-17T20:27:46.681Z,51.40
2018-08-17T20:30:24.414Z,51.60
2018-08-17T20:32:52.987Z,51.90
2018-08-17T20:35:22.062Z,52.00
2018-08-17T20:37:52.597Z,52.20
2018-08-17T20:40:21.693Z,52.20
2018-08-17T20:42:50.443Z,51.50
2018-08-17T20:45:20.190Z,51.80
2018-08-17T20:47:49.034Z,51.90
2018-08-17T20:50:18.960Z,52.10
2018-08-17T20:52:57.549Z,52.20
2018-08-17T20:55:26.273Z,52.00
2018-08-17T20:57:56.159Z,52.10
2018-08-17T21:00:26.264Z,52.30
2018-08-17T21:02:55.912Z,52.40
2018-08-17T21:05:24.563Z,52.50
2018-08-17T21:07:53.143Z,52.80
2018-08-17T21:10:21.890Z,52.80
2018-08-17T21:12:51.085Z,52.70
2018-08-17T21:15:19.959Z,52.90
2018-08-17T21:17:48.924Z,52.90
2018-08-17T21:20:17.535Z,52.90
2018-08-17T21:22:46.219Z,53.10
2018-08-17T21:25:15.254Z,53.30
2018-08-17T21:27:43.992Z,53.30
2018-08-17T21:30:12.719Z,53.40
2018-08-17T21:32:41.280Z,53.50
2018-08-17T21:35:10.274Z,53.70
2018-08-17T21:37:38.895Z,53.80
2018-08-17T21:40:15.224Z,53.90
2018-08-17T21:42:44.017Z,54.10
2018-08-17T21:45:12.715Z,54.10
2018-08-17T21:47:42.037Z,54.10
2018-08-17T21:50:15.924Z,54.30
2018-08-17T21:52:45.495Z,54.30
2018-08-17T21:55:14.709Z,54.50
2018-08-17T21:57:43.995Z,54.60
2018-08-17T22:00:19.653Z,54.70
2018-08-17T22:03:05.288Z,54.90
2018-08-17T22:05:34.775Z,54.80
2018-08-17T22:08:03.367Z,54.90
2018-08-17T22:10:31.928Z,55.00
2018-08-17T22:13:00.585Z,54.70
2018-08-17T22:15:30.533Z,54.80
2018-08-17T22:17:59.282Z,54.90
2018-08-17T22:20:27.893Z,54.80
2018-08-17T22:22:56.655Z,54.60
2018-08-17T22:25:25.229Z,54.60
2018-08-17T22:27:53.968Z,54.30
2018-08-17T22:30:23.903Z,54.20
2018-08-17T22:32:53.338Z,54.20
2018-08-17T22:35:22.061Z,54.50
2018-08-17T22:37:50.663Z,54.60
2018-08-17T22:40:19.292Z,54.90
2018-08-17T22:42:49.064Z,55.20
2018-08-17T22:45:17.803Z,55.60
2018-08-17T22:47:46.357Z,56.00
2018-08-17T22:50:14.975Z,56.40
2018-08-17T22:52:43.718Z,56.50
2018-08-17T22:55:12.316Z,56.40
2018-08-17T22:57:40.914Z,56.60
2018-08-17T23:00:31.354Z,56.70
2018-08-17T23:03:01.789Z,56.80
2018-08-17T23:05:34.210Z,56.80
2018-08-17T23:08:02.872Z,57.00
2018-08-17T23:10:31.503Z,57.40
2018-08-17T23:13:00.087Z,58.20
2018-08-17T23:15:28.701Z,58.40
2018-08-17T23:18:00.074Z,58.60
2018-08-17T23:20:33.702Z,59.00
2018-08-17T23:23:03.215Z,59.40
2018-08-17T23:25:31.985Z,59.30
2018-08-17T23:28:01.285Z,59.30
2018-08-17T23:30:30.224Z,59.60
2018-08-17T23:32:59.174Z,59.80
2018-08-17T23:35:28.094Z,60.40
2018-08-17T23:37:56.777Z,60.50
2018-08-17T23:40:25.383Z,60.90
2018-08-17T23:42:54.018Z,61.20
2018-08-17T23:45:22.554Z,61.50
2018-08-17T23:47:51.091Z,61.60
2018-08-17T23:50:19.749Z,61.70
2018-08-17T23:52:48.374Z,62.00
2018-08-17T23:55:18.174Z,62.10
2018-08-17T23:57:47.380Z,62.20
